Temp: 18.4°C   Baro: 1015.7mb
  Wind: 2.9mph   Dir: W (271°)
  Rain: 0.6mm (0.0mm/hr)
  Solar: 594W/m2  Hum: 64%
 
Bath Spa Weather Station Historical Data
Daily Summary for August 03, 2020 Units:  English    Metric   Both
Daily Weekly Monthly Yearly Custom
  High: Low: Average:
Temperature: 67.3 °F 49.5 °F 59.1 °F
Dew Point: 54 °F 46 °F 50.3 °F
Humidity: 91% 55.6% 74%
Wind Speed: 8.6mph 0mph 2.7mph
Wind Gust: 15mph - -
Wind- - WNW
Pressure: 30.07 in 30.00 in -
Precipitation: 0.00 in    
Historical Graphs
 
 
Tabular Data for August 03, 2020
Time Temperature Dew Point Pressure Wind Wind Speed Wind Gust Humidity Rainfall Rate (Hourly) solar
00:04 55.6 °F 51.1 °F 30.01 in Calm     85% 0.00 in 0 W/m2
00:09 55.6 °F 51.1 °F 30.01 in Calm     85% 0.00 in 0 W/m2
00:14 55.3 °F 50.8 °F 30.01 in Calm     85% 0.00 in 0 W/m2
00:19 55.2 °F 50.7 °F 30.01 in Calm     85.2% 0.00 in 0 W/m2
00:24 55 °F 50.9 °F 30.01 in Calm     86% 0.00 in 0 W/m2
00:29 55 °F 50.9 °F 30.01 in Calm     86% 0.00 in 0 W/m2
00:34 54.9 °F 50.7 °F 30.01 in Calm     86% 0.00 in 0 W/m2
00:39 54.9 °F 50.8 °F 30.01 in Calm     86.3% 0.00 in 0 W/m2
00:44 54.9 °F 51 °F 30.01 in NW 1.4 mph 4 mph 86.8% 0.00 in 0 W/m2
00:49 54.9 °F 51.1 °F 30.01 in NW 1.6 mph 4 mph 87% 0.00 in 0 W/m2
00:54 54.9 °F 51.1 °F 30.01 in NW 0.9 mph 4 mph 87% 0.00 in 0 W/m2
00:59 54.9 °F 51.1 °F 30.01 in NW 1.2 mph 3 mph 87% 0.00 in 0 W/m2
01:04 54.9 °F 51.1 °F 30.02 in Calm   1 mph 87% 0.00 in 0 W/m2
01:09 54.7 °F 50.9 °F 30.02 in NW 0.4 mph 3 mph 87% 0.00 in 0 W/m2
01:14 54.7 °F 50.9 °F 30.02 in NW 0.2 mph 3 mph 87% 0.00 in 0 W/m2
01:19 54.7 °F 50.9 °F 30.02 in SSW 0.7 mph 4 mph 87% 0.00 in 0 W/m2
01:24 54.8 °F 51 °F 30.02 in South 1.6 mph 5 mph 87% 0.00 in 0 W/m2
01:29 54.8 °F 51 °F 30.02 in SSW 0.8 mph 4 mph 87% 0.00 in 0 W/m2
01:34 54.7 °F 50.7 °F 30.02 in SW 0.8 mph 4 mph 86.6% 0.00 in 0 W/m2
01:39 54.7 °F 50.5 °F 30.02 in SW 1.4 mph 3 mph 86% 0.00 in 0 W/m2
01:44 54.7 °F 50.5 °F 30.02 in SW 0.2 mph 3 mph 86% 0.00 in 0 W/m2
01:49 54.8 °F 50.3 °F 30.02 in SW 1.7 mph 4 mph 85.2% 0.00 in 0 W/m2
01:54 54.9 °F 50.3 °F 30.01 in SW 0.5 mph 3 mph 84.8% 0.00 in 0 W/m2
01:59 54.7 °F 50 °F 30.01 in SW 0.2 mph 4 mph 84% 0.00 in 0 W/m2
02:03 54.7 °F 50 °F 30.01 in Calm   1 mph 84% 0.00 in 0 W/m2
02:09 54.6 °F 49.9 °F 30.01 in SW 0.2 mph 4 mph 84% 0.00 in 0 W/m2
02:14 54.5 °F 49.8 °F 30.01 in SW 0.6 mph 3 mph 84% 0.00 in 0 W/m2
02:19 54.3 °F 49.5 °F 30.01 in SW 0.6 mph 3 mph 83.8% 0.00 in 0 W/m2
02:24 54.3 °F 49.6 °F 30.01 in SW 0.8 mph 2 mph 84% 0.00 in 0 W/m2
02:29 54.2 °F 49.5 °F 30.01 in SW 0.2 mph 3 mph 84% 0.00 in 0 W/m2
02:34 54.1 °F 49.5 °F 30.01 in Calm     84% 0.00 in 0 W/m2
02:38 54 °F 49.3 °F 30.01 in Calm     84% 0.00 in 0 W/m2
02:44 54 °F 49.3 °F 30.01 in Calm   1 mph 84% 0.00 in 0 W/m2
02:49 53.8 °F 49.1 °F 30.01 in Calm     84% 0.00 in 0 W/m2
02:54 53.6 °F 48.9 °F 30.01 in Calm     84% 0.00 in 0 W/m2
02:59 53.5 °F 48.9 °F 30.01 in Calm     84.4% 0.00 in 0 W/m2
03:04 53.4 °F 49.1 °F 30.01 in Calm     85% 0.00 in 0 W/m2
03:09 53.4 °F 49.1 °F 30.01 in Calm     85% 0.00 in 0 W/m2
03:13 53.2 °F 48.9 °F 30.01 in Calm     85% 0.00 in 0 W/m2
03:19 53.2 °F 48.9 °F 30.01 in Calm     85% 0.00 in 0 W/m2
03:24 53 °F 48.7 °F 30.01 in Calm     85% 0.00 in 0 W/m2
03:29 52.9 °F 48.6 °F 30.00 in Calm     85% 0.00 in 0 W/m2
03:34 52.8 °F 48.6 °F 30.01 in Calm     85.8% 0.00 in 0 W/m2
03:39 52.7 °F 48.6 °F 30.01 in Calm     86% 0.00 in 0 W/m2
03:44 52.5 °F 48.4 °F 30.01 in Calm     86% 0.00 in 0 W/m2
03:49 52.3 °F 48.2 °F 30.01 in Calm     86% 0.00 in 0 W/m2
03:54 52.1 °F 48 °F 30.01 in Calm     86% 0.00 in 0 W/m2
03:59 52 °F 48.2 °F 30.01 in Calm   1 mph 87% 0.00 in 0 W/m2
04:04 51.8 °F 48 °F 30.01 in Calm     87% 0.00 in 0 W/m2
04:09 51.6 °F 47.8 °F 30.00 in Calm     87% 0.00 in 0 W/m2
04:14 51.4 °F 47.7 °F 30.01 in Calm     87% 0.00 in 0 W/m2
04:19 51.4 °F 47.8 °F 30.01 in Calm     87.4% 0.00 in 0 W/m2
04:24 51.4 °F 48 °F 30.01 in Calm     88% 0.00 in 0 W/m2
04:29 51.3 °F 47.8 °F 30.01 in Calm     88% 0.00 in 0 W/m2
04:34 51.4 °F 47.9 °F 30.01 in Calm     88% 0.00 in 0 W/m2
04:39 51.5 °F 48.1 °F 30.01 in Calm     88% 0.00 in 0 W/m2
04:44 51.5 °F 48.1 °F 30.01 in Calm     88% 0.00 in 0 W/m2
04:49 51.4 °F 47.9 °F 30.01 in Calm     88% 0.00 in 0 W/m2
04:54 51.1 °F 47.7 °F 30.01 in Calm     88% 0.00 in 0 W/m2
04:59 50.9 °F 47.5 °F 30.01 in Calm     88% 0.00 in 0 W/m2
05:04 50.7 °F 47.3 °F 30.01 in Calm     88% 0.00 in 0 W/m2
05:09 50.5 °F 47.1 °F 30.01 in Calm     88% 0.00 in 0 W/m2
05:14 50.4 °F 47.1 °F 30.01 in Calm     88.4% 0.00 in 0 W/m2
05:19 50.4 °F 47.3 °F 30.01 in Calm     89% 0.00 in 0 W/m2
05:24 50.4 °F 47.3 °F 30.01 in Calm     89% 0.00 in 0 W/m2
05:29 50.3 °F 47.2 °F 30.01 in Calm     89% 0.00 in 0 W/m2
05:34 50.1 °F 47 °F 30.01 in Calm     89% 0.00 in 0 W/m2
05:39 49.8 °F 46.8 °F 30.01 in Calm     89% 0.00 in 0 W/m2
05:44 49.8 °F 46.8 °F 30.01 in Calm     89% 0.00 in 5 W/m2
05:49 49.7 °F 46.7 °F 30.01 in Calm     89% 0.00 in 9 W/m2
05:54 49.6 °F 46.6 °F 30.01 in Calm     89% 0.00 in 11 W/m2
05:59 49.6 °F 46.8 °F 30.01 in Calm     89.8% 0.00 in 12 W/m2
06:04 49.5 °F 46.4 °F 30.01 in Calm     89.2% 0.00 in 16 W/m2
06:09 49.5 °F 46.6 °F 30.02 in Calm     90% 0.00 in 21 W/m2
06:14 49.5 °F 46.6 °F 30.02 in Calm     90% 0.00 in 25 W/m2
06:19 49.5 °F 46.7 °F 30.02 in Calm     90% 0.00 in 33 W/m2
06:24 49.7 °F 46.9 °F 30.02 in Calm     90% 0.00 in 40 W/m2
06:29 49.9 °F 47 °F 30.02 in Calm     90% 0.00 in 39 W/m2
06:34 50.2 °F 47.3 °F 30.02 in Calm     90% 0.00 in 42 W/m2
06:39 50.3 °F 47.4 °F 30.02 in Calm     90% 0.00 in 39 W/m2
06:44 50.4 °F 47.6 °F 30.02 in Calm     90% 0.00 in 40 W/m2
06:49 50.5 °F 47.7 °F 30.02 in Calm     90% 0.00 in 40 W/m2
06:54 50.7 °F 47.8 °F 30.02 in Calm     90% 0.00 in 40 W/m2
06:59 51 °F 48.4 °F 30.02 in Calm     90.8% 0.00 in 53 W/m2
07:04 51.2 °F 48.6 °F 30.02 in Calm     90.8% 0.00 in 53 W/m2
07:09 51.3 °F 48.7 °F 30.02 in Calm     90.8% 0.00 in 56 W/m2
07:14 51.4 °F 48.7 °F 30.02 in Calm     90.2% 0.00 in 67 W/m2
07:19 51.6 °F 49.1 °F 30.02 in Calm     91% 0.00 in 79 W/m2
07:24 51.8 °F 49.3 °F 30.02 in Calm     91% 0.00 in 91 W/m2
07:29 52.1 °F 49.3 °F 30.02 in SW 0.6 mph 3 mph 90.2% 0.00 in 107 W/m2
07:34 52.3 °F 49.8 °F 30.02 in SW 0.6 mph 4 mph 90.8% 0.00 in 125 W/m2
07:39 52.7 °F 49.8 °F 30.02 in SW 1.7 mph 3 mph 90% 0.00 in 137 W/m2
07:44 53 °F 50.1 °F 30.03 in SW 1.4 mph 4 mph 90% 0.00 in 155 W/m2
07:49 53.4 °F 50.5 °F 30.02 in SW 2.1 mph 3 mph 90% 0.00 in 171 W/m2
07:54 53.9 °F 51 °F 30.03 in WSW 2.6 mph 5 mph 90% 0.00 in 188 W/m2
07:59 54.1 °F 50.8 °F 30.02 in WSW 2.4 mph 4 mph 89% 0.00 in 202 W/m2
08:04 54.6 °F 51.3 °F 30.03 in WSW 1.2 mph 4 mph 88.6% 0.00 in 218 W/m2
08:09 55.1 °F 51.6 °F 30.03 in WSW 1.7 mph 4 mph 87.6% 0.00 in 234 W/m2
08:14 55.6 °F 51.6 °F 30.03 in WSW 1.7 mph 4 mph 86.5% 0.00 in 248 W/m2
08:19 56.2 °F 52 °F 30.03 in WSW 1.3 mph 3 mph 85.8% 0.00 in 267 W/m2
08:24 56.8 °F 52.2 °F 30.03 in West 1 mph 4 mph 84.6% 0.00 in 283 W/m2
08:29 57.4 °F 52.4 °F 30.03 in West 1.3 mph 4 mph 83.4% 0.00 in 299 W/m2
08:34 57.6 °F 52.3 °F 30.03 in West 3.7 mph 6 mph 82.2% 0.00 in 316 W/m2
08:39 57.6 °F 52 °F 30.03 in West 4.1 mph 8 mph 81.4% 0.00 in 330 W/m2
08:44 57.9 °F 52.4 °F 30.03 in West 2.1 mph 5 mph 81.6% 0.00 in 345 W/m2
08:47 58.3 °F 52.3 °F 30.03 in West 3.7 mph 5 mph 80.3% 0.00 in 355 W/m2
08:54 58.9 °F 52.4 °F 30.03 in West 3.2 mph 5 mph 79.2% 0.00 in 374 W/m2
08:59 59.4 °F 51.9 °F 30.03 in NW 3.3 mph 8 mph 76.2% 0.00 in 390 W/m2
09:04 59.4 °F 51.1 °F 30.03 in NW 4.5 mph 9 mph 73.8% 0.00 in 408 W/m2
09:09 59.6 °F 51.1 °F 30.03 in North 4.4 mph 8 mph 73.4% 0.00 in 422 W/m2
09:14 59.8 °F 51.2 °F 30.03 in NNW 3.2 mph 9 mph 73% 0.00 in 432 W/m2
09:19 60.1 °F 51.4 °F 30.03 in NW 3.7 mph 8 mph 73% 0.00 in 445 W/m2
09:24 60.2 °F 51.5 °F 30.03 in NW 3.7 mph 7 mph 73% 0.00 in 455 W/m2
09:29 60.4 °F 51.8 °F 30.03 in NW 4.6 mph 9 mph 73.2% 0.00 in 468 W/m2
09:34 60.6 °F 52 °F 30.03 in WNW 3.2 mph 10 mph 73% 0.00 in 480 W/m2
09:39 61.1 °F 51.8 °F 30.03 in NNW 4.5 mph 8 mph 71.6% 0.00 in 494 W/m2
09:44 61.1 °F 51.5 °F 30.03 in NNW 6 mph 9 mph 70.6% 0.00 in 508 W/m2
09:49 61.4 °F 51.3 °F 30.03 in NNE 4.1 mph 10 mph 69.4% 0.00 in 552 W/m2
09:54 62.3 °F 52 °F 30.03 in NW 1.8 mph 10 mph 68.8% 0.00 in 587 W/m2
09:59 62 °F 50.9 °F 30.03 in NNW 4.6 mph 9 mph 67.2% 0.00 in 601 W/m2
10:03 62.3 °F 51.1 °F 30.03 in NW 3 mph 11 mph 66.8% 0.00 in 613 W/m2
10:09 62.2 °F 50.6 °F 30.03 in NW 5.6 mph 11 mph 66% 0.00 in 654 W/m2
10:14 62.3 °F 52.1 °F 30.03 in West 3.1 mph 9 mph 69.2% 0.00 in 749 W/m2
10:19 62.8 °F 52.8 °F 30.03 in NW 2.8 mph 10 mph 69.8% 0.00 in 731 W/m2
10:24 62.2 °F 52.2 °F 30.03 in NW 5.4 mph 12 mph 69.8% 0.00 in 835 W/m2
10:29 63.3 °F 53.1 °F 30.03 in NW 3.9 mph 10 mph 69.2% 0.00 in 835 W/m2
10:34 63 °F 52.5 °F 30.03 in WNW 5.4 mph 10 mph 68.6% 0.00 in 835 W/m2
10:39 62.8 °F 52.5 °F 30.03 in WNW 1.7 mph 7 mph 69% 0.00 in 237 W/m2
10:44 62.6 °F 52.4 °F 30.03 in NW 3.7 mph 8 mph 69.2% 0.00 in 341 W/m2
10:49 62.5 °F 52.1 °F 30.03 in WNW 4.4 mph 9 mph 68.6% 0.00 in 341 W/m2
10:54 62.8 °F 52.4 °F 30.03 in WNW 4.1 mph 8 mph 68.8% 0.00 in 301 W/m2
10:59 62.7 °F 52.3 °F 30.03 in WNW 4.2 mph 7 mph 68.8% 0.00 in 301 W/m2
11:04 63.2 °F 52.8 °F 30.03 in NW 3.3 mph 10 mph 68.6% 0.00 in 824 W/m2
11:09 63.9 °F 52.9 °F 30.03 in NW 5.4 mph 10 mph 67.6% 0.00 in 824 W/m2
11:14 64.1 °F 52.8 °F 30.03 in NW 3.9 mph 11 mph 66.8% 0.00 in 905 W/m2
11:19 63.9 °F 52.9 °F 30.03 in NW 5.8 mph 11 mph 67.2% 0.00 in 905 W/m2
11:24 64.1 °F 52.9 °F 30.03 in WNW 4.1 mph 9 mph 66.8% 0.00 in 898 W/m2
11:29 63.5 °F 52.4 °F 30.03 in WNW 4.1 mph 9 mph 67.2% 0.00 in 158 W/m2
11:34 63.2 °F 52.6 °F 30.03 in WNW 3.7 mph 9 mph 68.4% 0.00 in 782 W/m2
11:39 64.3 °F 53.2 °F 30.03 in WNW 3.7 mph 8 mph 67% 0.00 in 795 W/m2
11:44 64.8 °F 52.7 °F 30.03 in West 7 mph 14 mph 65% 0.00 in 872 W/m2
11:49 64.6 °F 52.4 °F 30.03 in WNW 5.6 mph 14 mph 64.6% 0.00 in 872 W/m2
11:54 65.7 °F 52.3 °F 30.03 in West 6.5 mph 12 mph 62% 0.00 in 888 W/m2
11:58 66 °F 52.6 °F 30.03 in WNW 3.2 mph 10 mph 62% 0.00 in 926 W/m2
12:04 66.2 °F 53 °F 30.03 in NW 5.9 mph 12 mph 62.4% 0.00 in 923 W/m2
12:09 65.2 °F 51.9 °F 30.03 in NW 5.2 mph 10 mph 62% 0.00 in 953 W/m2
12:14 64.9 °F 51.5 °F 30.03 in WNW 4.4 mph 10 mph 61.8% 0.00 in 962 W/m2
12:19 64.8 °F 51 °F 30.03 in NW 6.6 mph 12 mph 60.8% 0.00 in 962 W/m2
12:24 65.6 °F 52.1 °F 30.03 in WNW 5.3 mph 9 mph 61.6% 0.00 in 998 W/m2
12:29 65.9 °F 52.4 °F 30.03 in NW 5.4 mph 12 mph 61.6% 0.00 in 352 W/m2
12:34 64.7 °F 51.6 °F 30.03 in NW 5.6 mph 10 mph 62.4% 0.00 in 281 W/m2
12:39 64.9 °F 51.2 °F 30.03 in NW 4.5 mph 11 mph 61.4% 0.00 in 318 W/m2
12:44 65.4 °F 50.8 °F 30.03 in NNW 4.9 mph 9 mph 59.2% 0.00 in 1083 W/m2
12:49 65.8 °F 50.2 °F 30.03 in WNW 3.9 mph 10 mph 57.2% 0.00 in 1083 W/m2
12:54 65.4 °F 50.8 °F 30.03 in WNW 6 mph 11 mph 59.3% 0.00 in 315 W/m2
12:59 64.9 °F 50.4 °F 30.03 in WNW 5.2 mph 11 mph 59.6% 0.00 in 371 W/m2
13:04 65 °F 50.6 °F 30.03 in NW 6 mph 11 mph 59.6% 0.00 in 371 W/m2
13:09 65.3 °F 51.4 °F 30.03 in WNW 3.3 mph 11 mph 60.6% 0.00 in 371 W/m2
13:14 66.7 °F 51.6 °F 30.03 in NNW 3.3 mph 8 mph 58.2% 0.00 in 371 W/m2
13:19 67.3 °F 50.9 °F 30.03 in West 4.4 mph 9 mph 55.6% 0.00 in 796 W/m2
13:24 67.1 °F 51.2 °F 30.03 in NW 5.9 mph 15 mph 56.6% 0.00 in 1009 W/m2
13:28 66.6 °F 50.9 °F 30.03 in NNW 4 mph 9 mph 57% 0.00 in 1009 W/m2
13:34 66.1 °F 51.2 °F 30.02 in NNW 4.5 mph 7 mph 58.8% 0.00 in 345 W/m2
13:39 65.7 °F 50.9 °F 30.02 in NW 3.3 mph 9 mph 59% 0.00 in 432 W/m2
13:44 66 °F 51.3 °F 30.02 in NW 4.6 mph 12 mph 59% 0.00 in 468 W/m2
13:49 66.2 °F 51.8 °F 30.02 in NW 5.4 mph 12 mph 59.6% 0.00 in 388 W/m2
13:54 65.7 °F 51.2 °F 30.02 in NNW 7.3 mph 14 mph 59.6% 0.00 in 320 W/m2
13:59 65.3 °F 51.1 °F 30.02 in NW 4.1 mph 10 mph 60% 0.00 in 334 W/m2
14:04 65.8 °F 51.3 °F 30.02 in NNW 5.4 mph 12 mph 59.6% 0.00 in 443 W/m2
14:09 65.5 °F 50.7 °F 30.02 in NNW 6.8 mph 12 mph 59% 0.00 in 443 W/m2
14:14 64.8 °F 49.8 °F 30.02 in NNW 5 mph 14 mph 58.4% 0.00 in 162 W/m2
14:19 64.1 °F 49.7 °F 30.02 in NW 6 mph 14 mph 59.4% 0.00 in 160 W/m2
14:24 64.2 °F 50 °F 30.02 in NNW 2.1 mph 7 mph 60% 0.00 in 220 W/m2
14:29 64.8 °F 49.9 °F 30.02 in NW 3.2 mph 7 mph 58.5% 0.00 in 230 W/m2
14:34 64.6 °F 50 °F 30.02 in NNW 4.7 mph 9 mph 59% 0.00 in 209 W/m2
14:39 64.6 °F 49.2 °F 30.02 in WNW 3.6 mph 9 mph 57.6% 0.00 in 158 W/m2
14:44 64.6 °F 49.1 °F 30.02 in NW 4.8 mph 13 mph 57.4% 0.00 in 179 W/m2
14:49 64.5 °F 49 °F 30.02 in WNW 4.5 mph 10 mph 57.2% 0.00 in 223 W/m2
14:54 64.4 °F 50.1 °F 30.02 in NW 5.5 mph 9 mph 59.6% 0.00 in 315 W/m2
14:59 64.8 °F 51.4 °F 30.02 in NW 2.7 mph 8 mph 61.8% 0.00 in 309 W/m2
15:04 65 °F 52 °F 30.02 in WNW 4.9 mph 8 mph 62.8% 0.00 in 288 W/m2
15:09 64.9 °F 52.5 °F 30.02 in West 5.2 mph 14 mph 64% 0.00 in 218 W/m2
15:14 64.8 °F 52.6 °F 30.02 in WNW 6.3 mph 12 mph 64.5% 0.00 in 195 W/m2
15:19 64.7 °F 51.3 °F 30.02 in West 5.2 mph 11 mph 61.8% 0.00 in 190 W/m2
15:24 64.6 °F 50.6 °F 30.02 in West 5.6 mph 14 mph 60.4% 0.00 in 213 W/m2
15:29 64.8 °F 50 °F 30.02 in NW 6.9 mph 15 mph 58.8% 0.00 in 246 W/m2
15:34 64.6 °F 49.5 °F 30.02 in WNW 7.1 mph 11 mph 58% 0.00 in 257 W/m2
15:39 64.7 °F 49.6 °F 30.02 in NW 6.8 mph 10 mph 58% 0.00 in 239 W/m2
15:44 64.8 °F 50.1 °F 30.02 in WNW 3.8 mph 10 mph 58.8% 0.00 in 218 W/m2
15:49 64.8 °F 50.2 °F 30.02 in NW 3.9 mph 8 mph 59% 0.00 in 197 W/m2
15:54 64.9 °F 51.1 °F 30.02 in West 4.2 mph 8 mph 61% 0.00 in 172 W/m2
15:59 64.7 °F 51.3 °F 30.02 in West 5.2 mph 9 mph 61.8% 0.00 in 171 W/m2
16:04 64.6 °F 51.3 °F 30.02 in WNW 6.8 mph 11 mph 62% 0.00 in 160 W/m2
16:08 64.4 °F 52.2 °F 30.02 in WNW 5.2 mph 12 mph 64.5% 0.00 in 139 W/m2
16:14 64.1 °F 52.7 °F 30.02 in NW 5.6 mph 12 mph 66.2% 0.00 in 141 W/m2
16:19 64 °F 52.8 °F 30.02 in WNW 6.1 mph 11 mph 67% 0.00 in 163 W/m2
16:24 63.9 °F 52.7 °F 30.02 in WNW 4.4 mph 10 mph 67% 0.00 in 174 W/m2
16:29 64 °F 52.9 °F 30.02 in WNW 5.8 mph 11 mph 67% 0.00 in 193 W/m2
16:34 64.1 °F 52.7 °F 30.02 in West 3.8 mph 9 mph 66.4% 0.00 in 206 W/m2
16:39 64.4 °F 53 °F 30.02 in WNW 2.8 mph 7 mph 66.2% 0.00 in 199 W/m2
16:44 64.6 °F 52.7 °F 30.02 in NW 3.4 mph 11 mph 65.6% 0.00 in 332 W/m2
16:49 64.9 °F 52.1 °F 30.02 in NW 6 mph 12 mph 63.4% 0.00 in 680 W/m2
16:54 65.7 °F 51.8 °F 30.02 in NW 6.3 mph 12 mph 61% 0.00 in 645 W/m2
16:59 66.2 °F 52.3 °F 30.02 in NNW 7.6 mph 12 mph 60.8% 0.00 in 619 W/m2
17:04 66.3 °F 52.2 °F 30.02 in NW 7.8 mph 13 mph 60.2% 0.00 in 566 W/m2
17:09 66 °F 51.8 °F 30.02 in WNW 6.2 mph 11 mph 60% 0.00 in 547 W/m2
17:14 65.6 °F 51.4 °F 30.01 in NW 5 mph 8 mph 60% 0.00 in 97 W/m2
17:19 65.3 °F 51.1 °F 30.02 in WNW 3.7 mph 8 mph 60.2% 0.00 in 512 W/m2
17:24 65.7 °F 51.9 °F 30.02 in WNW 5.3 mph 9 mph 61% 0.00 in 520 W/m2
17:29 66.1 °F 52 °F 30.01 in NW 4.7 mph 11 mph 60.2% 0.00 in 564 W/m2
17:34 66.6 °F 52 °F 30.01 in WNW 7 mph 12 mph 59.6% 0.00 in 578 W/m2
17:39 66.5 °F 52.4 °F 30.02 in WNW 7 mph 13 mph 60.6% 0.00 in 531 W/m2
17:44 66.1 °F 52.1 °F 30.01 in WNW 6.2 mph 12 mph 60.6% 0.00 in 517 W/m2
17:49 66.7 °F 52.2 °F 30.01 in WNW 5.4 mph 13 mph 59.8% 0.00 in 483 W/m2
17:54 66.9 °F 52.2 °F 30.01 in WNW 7.5 mph 13 mph 59% 0.00 in 457 W/m2
17:59 66.4 °F 52.2 °F 30.02 in WNW 5.3 mph 11 mph 60% 0.00 in 436 W/m2
18:04 65.5 °F 52.4 °F 30.02 in WNW 4.5 mph 9 mph 62.8% 0.00 in 91 W/m2
18:09 65.6 °F 52.4 °F 30.01 in NW 5.8 mph 11 mph 62.4% 0.00 in 436 W/m2
18:14 66.3 °F 52.2 °F 30.01 in WNW 7 mph 12 mph 60.2% 0.00 in 390 W/m2
18:19 66.6 °F 51.8 °F 30.01 in WNW 6.4 mph 13 mph 59.2% 0.00 in 376 W/m2
18:24 66.5 °F 52.1 °F 30.02 in West 6.8 mph 13 mph 59.8% 0.00 in 350 W/m2
18:29 66.3 °F 52.2 °F 30.02 in WNW 7.8 mph 15 mph 60.4% 0.00 in 334 W/m2
18:34 66 °F 51.8 °F 30.01 in WNW 7.2 mph 12 mph 60% 0.00 in 322 W/m2
18:39 65.8 °F 51.4 °F 30.01 in WNW 7.6 mph 13 mph 59.6% 0.00 in 306 W/m2
18:44 66 °F 52.2 °F 30.02 in WNW 5.8 mph 12 mph 61% 0.00 in 297 W/m2
18:49 65.9 °F 52.8 °F 30.01 in WNW 8.2 mph 15 mph 62.5% 0.00 in 292 W/m2
18:54 65.7 °F 53.8 °F 30.02 in WNW 5.8 mph 14 mph 65.4% 0.00 in 274 W/m2
18:59 65.1 °F 54 °F 30.02 in West 7.4 mph 15 mph 67% 0.00 in 260 W/m2
19:04 64.9 °F 53.9 °F 30.02 in WNW 8.6 mph 14 mph 67.2% 0.00 in 243 W/m2
19:09 64.9 °F 53.2 °F 30.02 in West 8 mph 15 mph 66% 0.00 in 221 W/m2
19:14 64.6 °F 53.2 °F 30.02 in West 6.7 mph 12 mph 66.6% 0.00 in 197 W/m2
19:19 64.8 °F 53.5 °F 30.02 in West 6.4 mph 11 mph 66.8% 0.00 in 186 W/m2
19:24 64.8 °F 53.7 °F 30.02 in West 4.7 mph 10 mph 67% 0.00 in 160 W/m2
19:29 64.7 °F 53.2 °F 30.02 in West 7.4 mph 12 mph 66.4% 0.00 in 156 W/m2
19:34 64.2 °F 53.1 °F 30.02 in WNW 6.3 mph 12 mph 67% 0.00 in 141 W/m2
19:39 64.2 °F 53.1 °F 30.02 in West 4.3 mph 12 mph 67% 0.00 in 127 W/m2
19:43 64.3 °F 53.2 °F 30.02 in West 6.8 mph 12 mph 67.3% 0.00 in 113 W/m2
19:49 64.2 °F 52.7 °F 30.02 in WNW 4.2 mph 10 mph 66% 0.00 in 100 W/m2
19:54 64.3 °F 52.5 °F 30.03 in West 3.4 mph 8 mph 65.4% 0.00 in 86 W/m2
19:59 64.3 °F 52.3 °F 30.03 in WNW 3.4 mph 8 mph 65.2% 0.00 in 72 W/m2
20:04 63.9 °F 52.4 °F 30.03 in West 4.5 mph 9 mph 66% 0.00 in 56 W/m2
20:09 63.4 °F 52.2 °F 30.03 in WNW 3.3 mph 9 mph 66.6% 0.00 in 33 W/m2
20:13 63.1 °F 52.2 °F 30.03 in WNW 3.2 mph 9 mph 67.5% 0.00 in 23 W/m2
20:19 62.6 °F 52.1 °F 30.03 in WNW 3.8 mph 5 mph 68.4% 0.00 in 16 W/m2
20:24 62.3 °F 52.1 °F 30.03 in WNW 2.4 mph 6 mph 69% 0.00 in 14 W/m2
20:29 62 °F 51.9 °F 30.03 in WNW 2.1 mph 6 mph 69.6% 0.00 in 12 W/m2
20:34 61.8 °F 51.9 °F 30.03 in WNW 2 mph 5 mph 70% 0.00 in 11 W/m2
20:39 61.4 °F 51.5 °F 30.03 in WNW 2.9 mph 6 mph 70% 0.00 in 11 W/m2
20:44 61.2 °F 51.3 °F 30.03 in WNW 3.2 mph 6 mph 70% 0.00 in 7 W/m2
20:49 60.9 °F 51.1 °F 30.03 in WNW 2.4 mph 5 mph 70.2% 0.00 in 5 W/m2
20:54 60.5 °F 51.1 °F 30.03 in WNW 2 mph 4 mph 71% 0.00 in 0 W/m2
20:59 60.3 °F 50.4 °F 30.04 in WNW 0.6 mph 4 mph 70% 0.00 in 0 W/m2
21:04 60.1 °F 49.3 °F 30.04 in WNW 2.2 mph 4 mph 67.4% 0.00 in 0 W/m2
21:09 60 °F 48.9 °F 30.04 in Calm   2 mph 66.8% 0.00 in 0 W/m2
21:14 59.7 °F 48.7 °F 30.05 in Calm     67% 0.00 in 0 W/m2
21:19 59.5 °F 48.8 °F 30.05 in Calm     67.8% 0.00 in 0 W/m2
21:24 59.4 °F 49.2 °F 30.05 in Calm     69% 0.00 in 0 W/m2
21:29 59 °F 48.9 °F 30.05 in WNW 0.2 mph 2 mph 69% 0.00 in 0 W/m2
21:34 58.6 °F 48.8 °F 30.05 in WNW 0.2 mph 2 mph 69.8% 0.00 in 0 W/m2
21:39 58.3 °F 48.5 °F 30.05 in WNW 1.2 mph 3 mph 69.8% 0.00 in 0 W/m2
21:44 57.9 °F 48.2 °F 30.05 in Calm   2 mph 70% 0.00 in 0 W/m2
21:49 57.7 °F 48 °F 30.05 in Calm     70% 0.00 in 0 W/m2
21:54 57.6 °F 48 °F 30.05 in Calm     70.4% 0.00 in 0 W/m2
21:59 57.4 °F 48 °F 30.05 in Calm     71% 0.00 in 0 W/m2
22:04 57.1 °F 47.7 °F 30.06 in Calm     71% 0.00 in 0 W/m2
22:09 56.8 °F 47.7 °F 30.06 in Calm     71.6% 0.00 in 0 W/m2
22:14 56.7 °F 47.7 °F 30.06 in Calm     72% 0.00 in 0 W/m2
22:19 56.5 °F 47.5 °F 30.06 in Calm     72% 0.00 in 0 W/m2
22:24 56.2 °F 47.6 °F 30.06 in Calm     72.6% 0.00 in 0 W/m2
22:29 55.9 °F 47.5 °F 30.06 in Calm     73% 0.00 in 0 W/m2
22:34 55.7 °F 47.2 °F 30.06 in Calm     73% 0.00 in 0 W/m2
22:39 55.5 °F 47 °F 30.06 in Calm     73% 0.00 in 0 W/m2
22:44 55.3 °F 46.8 °F 30.06 in Calm     73% 0.00 in 0 W/m2
22:49 55.2 °F 46.8 °F 30.06 in Calm     73% 0.00 in 0 W/m2
22:54 55 °F 46.8 °F 30.06 in Calm     73.6% 0.00 in 0 W/m2
22:59 55 °F 46.9 °F 30.06 in WNW 0.2 mph 2 mph 74% 0.00 in 0 W/m2
23:04 54.9 °F 46.8 °F 30.07 in WNW 0.5 mph 3 mph 74% 0.00 in 0 W/m2
23:09 54.7 °F 46.6 °F 30.07 in WNW 0.4 mph 3 mph 74% 0.00 in 0 W/m2
23:14 54.6 °F 46.5 °F 30.07 in Calm     74% 0.00 in 0 W/m2
23:19 54.5 °F 46.4 °F 30.07 in Calm     74% 0.00 in 0 W/m2
23:24 54.4 °F 46.3 °F 30.07 in Calm     74% 0.00 in 0 W/m2
23:29 54.3 °F 46.6 °F 30.07 in Calm     75% 0.00 in 0 W/m2
23:34 54.3 °F 46.6 °F 30.07 in Calm     75% 0.00 in 0 W/m2
23:39 54.1 °F 46.4 °F 30.07 in Calm     75% 0.00 in 0 W/m2
23:44 54.1 °F 46.4 °F 30.07 in Calm     75% 0.00 in 0 W/m2
23:49 54 °F 46.2 °F 30.07 in Calm     75% 0.00 in 0 W/m2
23:54 54 °F 46.2 °F 30.07 in Calm     75% 0.00 in 0 W/m2
23:59 53.7 °F 46 °F 30.07 in Calm     75% 0.00 in 0 W/m2
Bath Spa Weather
Compliments of Weather Underground - 2 mb